sensor_id;sensor_type;location;lat;lon;timestamp;P1;durP1;ratioP1;P2;durP2;ratioP2
24216;SDS011;12356;49.386;8.688;2023-10-13T00:00:42;17.05;;;7.57;;
24216;SDS011;12356;49.386;8.688;2023-10-13T00:03:13;17.25;;;7.70;;
24216;SDS011;12356;49.386;8.688;2023-10-13T00:05:46;20.73;;;7.28;;
24216;SDS011;12356;49.386;8.688;2023-10-13T00:08:17;17.60;;;8.43;;
24216;SDS011;12356;49.386;8.688;2023-10-13T00:10:50;17.23;;;7.90;;
24216;SDS011;12356;49.386;8.688;2023-10-13T00:13:21;14.45;;;7.35;;
24216;SDS011;12356;49.386;8.688;2023-10-13T00:15:51;13.93;;;7.28;;
24216;SDS011;12356;49.386;8.688;2023-10-13T00:18:29;18.50;;;7.85;;
24216;SDS011;12356;49.386;8.688;2023-10-13T00:21:03;22.45;;;7.60;;
24216;SDS011;12356;49.386;8.688;2023-10-13T00:23:43;13.75;;;7.50;;
24216;SDS011;12356;49.386;8.688;2023-10-13T00:26:27;18.48;;;7.78;;
24216;SDS011;12356;49.386;8.688;2023-10-13T00:28:59;17.08;;;8.00;;
24216;SDS011;12356;49.386;8.688;2023-10-13T00:31:37;14.75;;;8.07;;
24216;SDS011;12356;49.386;8.688;2023-10-13T00:34:10;16.65;;;8.20;;
24216;SDS011;12356;49.386;8.688;2023-10-13T00:36:45;19.77;;;7.85;;
24216;SDS011;12356;49.386;8.688;2023-10-13T00:39:39;16.23;;;7.90;;
24216;SDS011;12356;49.386;8.688;2023-10-13T00:42:15;14.65;;;7.43;;
24216;SDS011;12356;49.386;8.688;2023-10-13T00:44:50;15.02;;;7.78;;
24216;SDS011;12356;49.386;8.688;2023-10-13T00:47:24;17.40;;;8.07;;
24216;SDS011;12356;49.386;8.688;2023-10-13T00:50:06;16.33;;;8.10;;
24216;SDS011;12356;49.386;8.688;2023-10-13T00:52:41;14.93;;;7.65;;
24216;SDS011;12356;49.386;8.688;2023-10-13T00:55:17;13.93;;;8.05;;
24216;SDS011;12356;49.386;8.688;2023-10-13T00:57:52;16.95;;;7.68;;
24216;SDS011;12356;49.386;8.688;2023-10-13T01:00:27;14.63;;;8.32;;
24216;SDS011;12356;49.386;8.688;2023-10-13T01:02:58;16.70;;;7.95;;
24216;SDS011;12356;49.386;8.688;2023-10-13T01:05:36;17.52;;;7.95;;
24216;SDS011;12356;49.386;8.688;2023-10-13T01:08:09;17.10;;;7.25;;
24216;SDS011;12356;49.386;8.688;2023-10-13T01:10:41;19.42;;;8.20;;
24216;SDS011;12356;49.386;8.688;2023-10-13T01:13:11;13.95;;;7.72;;
24216;SDS011;12356;49.386;8.688;2023-10-13T01:15:42;13.60;;;7.70;;
24216;SDS011;12356;49.386;8.688;2023-10-13T01:18:12;13.90;;;7.30;;
24216;SDS011;12356;49.386;8.688;2023-10-13T01:20:46;14.07;;;7.38;;
24216;SDS011;12356;49.386;8.688;2023-10-13T01:23:22;16.42;;;7.60;;
24216;SDS011;12356;49.386;8.688;2023-10-13T01:25:58;19.27;;;7.20;;
24216;SDS011;12356;49.386;8.688;2023-10-13T01:28:28;15.68;;;7.50;;
24216;SDS011;12356;49.386;8.688;2023-10-13T01:30:59;14.27;;;7.45;;
24216;SDS011;12356;49.386;8.688;2023-10-13T01:33:33;15.35;;;7.63;;
24216;SDS011;12356;49.386;8.688;2023-10-13T01:36:04;15.00;;;7.43;;
24216;SDS011;12356;49.386;8.688;2023-10-13T01:38:40;13.18;;;6.70;;
24216;SDS011;12356;49.386;8.688;2023-10-13T01:43:44;16.15;;;7.53;;
24216;SDS011;12356;49.386;8.688;2023-10-13T01:46:14;15.77;;;7.35;;
24216;SDS011;12356;49.386;8.688;2023-10-13T01:48:49;14.63;;;7.35;;
24216;SDS011;12356;49.386;8.688;2023-10-13T01:51:24;14.05;;;7.13;;
24216;SDS011;12356;49.386;8.688;2023-10-13T01:53:57;12.95;;;7.35;;
24216;SDS011;12356;49.386;8.688;2023-10-13T01:56:28;18.02;;;7.80;;
24216;SDS011;12356;49.386;8.688;2023-10-13T02:01:34;12.88;;;6.93;;
24216;SDS011;12356;49.386;8.688;2023-10-13T02:04:05;14.48;;;7.20;;
24216;SDS011;12356;49.386;8.688;2023-10-13T02:06:36;16.35;;;6.50;;
24216;SDS011;12356;49.386;8.688;2023-10-13T02:09:08;18.38;;;7.30;;
24216;SDS011;12356;49.386;8.688;2023-10-13T02:11:55;10.60;;;6.30;;
24216;SDS011;12356;49.386;8.688;2023-10-13T02:14:27;18.52;;;7.18;;
24216;SDS011;12356;49.386;8.688;2023-10-13T02:16:57;15.15;;;6.68;;
24216;SDS011;12356;49.386;8.688;2023-10-13T02:19:43;10.57;;;6.30;;
24216;SDS011;12356;49.386;8.688;2023-10-13T02:22:15;17.93;;;7.20;;
24216;SDS011;12356;49.386;8.688;2023-10-13T02:24:57;14.05;;;6.72;;
24216;SDS011;12356;49.386;8.688;2023-10-13T02:27:34;14.40;;;6.55;;
24216;SDS011;12356;49.386;8.688;2023-10-13T02:30:11;12.32;;;6.30;;
24216;SDS011;12356;49.386;8.688;2023-10-13T02:32:45;11.85;;;6.40;;
24216;SDS011;12356;49.386;8.688;2023-10-13T02:35:16;12.48;;;6.15;;
24216;SDS011;12356;49.386;8.688;2023-10-13T02:38:01;11.48;;;5.88;;
24216;SDS011;12356;49.386;8.688;2023-10-13T02:40:40;14.68;;;6.70;;
24216;SDS011;12356;49.386;8.688;2023-10-13T02:43:12;16.35;;;6.55;;
24216;SDS011;12356;49.386;8.688;2023-10-13T02:45:45;9.63;;;6.00;;
24216;SDS011;12356;49.386;8.688;2023-10-13T02:48:28;13.90;;;6.00;;
24216;SDS011;12356;49.386;8.688;2023-10-13T02:51:12;13.65;;;6.20;;
24216;SDS011;12356;49.386;8.688;2023-10-13T02:53:46;14.60;;;6.22;;
24216;SDS011;12356;49.386;8.688;2023-10-13T02:56:22;13.73;;;6.32;;
24216;SDS011;12356;49.386;8.688;2023-10-13T02:58:52;22.83;;;6.50;;
24216;SDS011;12356;49.386;8.688;2023-10-13T03:01:23;11.75;;;6.38;;
24216;SDS011;12356;49.386;8.688;2023-10-13T03:04:04;17.08;;;6.60;;
24216;SDS011;12356;49.386;8.688;2023-10-13T03:06:38;12.00;;;6.25;;
24216;SDS011;12356;49.386;8.688;2023-10-13T03:09:12;12.82;;;6.70;;
24216;SDS011;12356;49.386;8.688;2023-10-13T03:11:50;12.32;;;5.93;;
24216;SDS011;12356;49.386;8.688;2023-10-13T03:14:22;12.05;;;6.15;;
24216;SDS011;12356;49.386;8.688;2023-10-13T03:16:59;12.68;;;5.90;;
24216;SDS011;12356;49.386;8.688;2023-10-13T03:19:41;11.55;;;6.20;;
24216;SDS011;12356;49.386;8.688;2023-10-13T03:22:16;10.13;;;5.85;;
24216;SDS011;12356;49.386;8.688;2023-10-13T03:24:47;14.38;;;6.35;;
24216;SDS011;12356;49.386;8.688;2023-10-13T03:27:18;13.48;;;5.97;;
24216;SDS011;12356;49.386;8.688;2023-10-13T03:29:53;13.60;;;6.40;;
24216;SDS011;12356;49.386;8.688;2023-10-13T03:32:24;11.73;;;5.60;;
24216;SDS011;12356;49.386;8.688;2023-10-13T03:34:56;13.93;;;6.07;;
24216;SDS011;12356;49.386;8.688;2023-10-13T03:37:29;12.73;;;5.95;;
24216;SDS011;12356;49.386;8.688;2023-10-13T03:40:10;11.88;;;5.78;;
24216;SDS011;12356;49.386;8.688;2023-10-13T03:42:51;10.57;;;5.43;;
24216;SDS011;12356;49.386;8.688;2023-10-13T03:45:41;14.15;;;6.18;;
24216;SDS011;12356;49.386;8.688;2023-10-13T03:48:18;10.25;;;5.60;;
24216;SDS011;12356;49.386;8.688;2023-10-13T03:53:33;14.40;;;5.85;;
24216;SDS011;12356;49.386;8.688;2023-10-13T03:56:06;13.02;;;5.63;;
24216;SDS011;12356;49.386;8.688;2023-10-13T03:58:47;13.35;;;6.15;;
24216;SDS011;12356;49.386;8.688;2023-10-13T04:01:23;12.55;;;5.97;;
24216;SDS011;12356;49.386;8.688;2023-10-13T04:04:13;17.45;;;6.18;;
24216;SDS011;12356;49.386;8.688;2023-10-13T04:06:45;13.23;;;5.90;;
24216;SDS011;12356;49.386;8.688;2023-10-13T04:09:20;19.67;;;6.13;;
24216;SDS011;12356;49.386;8.688;2023-10-13T04:12:01;14.63;;;6.85;;
24216;SDS011;12356;49.386;8.688;2023-10-13T04:14:34;13.73;;;6.45;;
24216;SDS011;12356;49.386;8.688;2023-10-13T04:17:25;16.40;;;6.00;;
24216;SDS011;12356;49.386;8.688;2023-10-13T04:19:57;15.02;;;5.95;;
24216;SDS011;12356;49.386;8.688;2023-10-13T04:22:38;12.40;;;6.13;;
24216;SDS011;12356;49.386;8.688;2023-10-13T04:25:16;15.68;;;6.40;;
24216;SDS011;12356;49.386;8.688;2023-10-13T04:28:14;14.98;;;6.20;;
24216;SDS011;12356;49.386;8.688;2023-10-13T04:31:04;10.00;;;6.13;;
24216;SDS011;12356;49.386;8.688;2023-10-13T04:33:54;12.68;;;5.57;;
24216;SDS011;12356;49.386;8.688;2023-10-13T04:36:32;17.13;;;6.00;;
24216;SDS011;12356;49.386;8.688;2023-10-13T04:39:03;14.40;;;5.45;;
24216;SDS011;12356;49.386;8.688;2023-10-13T04:41:40;12.57;;;5.15;;
24216;SDS011;12356;49.386;8.688;2023-10-13T04:44:27;13.70;;;5.35;;
24216;SDS011;12356;49.386;8.688;2023-10-13T04:49:51;15.25;;;5.65;;
24216;SDS011;12356;49.386;8.688;2023-10-13T04:52:22;16.77;;;5.75;;
24216;SDS011;12356;49.386;8.688;2023-10-13T04:55:11;11.05;;;5.13;;
24216;SDS011;12356;49.386;8.688;2023-10-13T04:58:08;13.93;;;5.28;;
24216;SDS011;12356;49.386;8.688;2023-10-13T05:01:00;11.90;;;5.45;;
24216;SDS011;12356;49.386;8.688;2023-10-13T05:03:50;13.20;;;5.30;;
24216;SDS011;12356;49.386;8.688;2023-10-13T05:06:39;11.90;;;5.15;;
24216;SDS011;12356;49.386;8.688;2023-10-13T05:09:15;14.30;;;5.40;;
24216;SDS011;12356;49.386;8.688;2023-10-13T05:12:05;13.38;;;5.00;;
24216;SDS011;12356;49.386;8.688;2023-10-13T05:14:54;12.27;;;5.22;;
24216;SDS011;12356;49.386;8.688;2023-10-13T05:17:43;11.15;;;4.90;;
24216;SDS011;12356;49.386;8.688;2023-10-13T05:20:32;10.40;;;5.40;;
24216;SDS011;12356;49.386;8.688;2023-10-13T05:23:21;11.77;;;5.03;;
24216;SDS011;12356;49.386;8.688;2023-10-13T05:26:10;14.07;;;4.88;;
24216;SDS011;12356;49.386;8.688;2023-10-13T05:28:59;14.73;;;4.97;;
24216;SDS011;12356;49.386;8.688;2023-10-13T05:31:49;8.60;;;4.65;;
24216;SDS011;12356;49.386;8.688;2023-10-13T05:34:38;16.48;;;5.47;;
24216;SDS011;12356;49.386;8.688;2023-10-13T05:37:27;10.55;;;4.68;;
24216;SDS011;12356;49.386;8.688;2023-10-13T05:40:16;13.32;;;4.75;;
24216;SDS011;12356;49.386;8.688;2023-10-13T05:43:05;8.77;;;4.97;;
24216;SDS011;12356;49.386;8.688;2023-10-13T05:46:01;12.43;;;4.70;;
24216;SDS011;12356;49.386;8.688;2023-10-13T05:48:52;7.97;;;4.45;;
24216;SDS011;12356;49.386;8.688;2023-10-13T05:51:27;11.88;;;4.43;;
24216;SDS011;12356;49.386;8.688;2023-10-13T05:54:13;13.05;;;4.78;;
24216;SDS011;12356;49.386;8.688;2023-10-13T05:56:45;16.50;;;4.60;;
24216;SDS011;12356;49.386;8.688;2023-10-13T05:59:36;8.70;;;4.20;;
24216;SDS011;12356;49.386;8.688;2023-10-13T06:02:26;12.25;;;4.18;;
24216;SDS011;12356;49.386;8.688;2023-10-13T06:05:15;11.60;;;4.38;;
24216;SDS011;12356;49.386;8.688;2023-10-13T06:08:04;8.60;;;4.10;;
24216;SDS011;12356;49.386;8.688;2023-10-13T06:11:00;11.82;;;4.07;;
24216;SDS011;12356;49.386;8.688;2023-10-13T06:13:50;8.60;;;4.32;;
24216;SDS011;12356;49.386;8.688;2023-10-13T06:16:39;12.05;;;4.13;;
24216;SDS011;12356;49.386;8.688;2023-10-13T06:19:28;10.38;;;4.40;;
24216;SDS011;12356;49.386;8.688;2023-10-13T06:22:17;12.95;;;4.50;;
24216;SDS011;12356;49.386;8.688;2023-10-13T06:25:07;11.25;;;4.40;;
24216;SDS011;12356;49.386;8.688;2023-10-13T06:27:56;11.32;;;3.92;;
24216;SDS011;12356;49.386;8.688;2023-10-13T06:30:53;11.30;;;4.40;;
24216;SDS011;12356;49.386;8.688;2023-10-13T06:33:26;10.45;;;4.30;;
24216;SDS011;12356;49.386;8.688;2023-10-13T06:36:01;8.20;;;4.00;;
24216;SDS011;12356;49.386;8.688;2023-10-13T06:38:33;9.85;;;4.30;;
24216;SDS011;12356;49.386;8.688;2023-10-13T06:41:06;11.07;;;4.40;;
24216;SDS011;12356;49.386;8.688;2023-10-13T06:43:38;11.77;;;4.25;;
24216;SDS011;12356;49.386;8.688;2023-10-13T06:46:13;11.15;;;4.20;;
24216;SDS011;12356;49.386;8.688;2023-10-13T06:48:46;12.25;;;4.32;;
24216;SDS011;12356;49.386;8.688;2023-10-13T06:51:20;11.82;;;4.70;;
24216;SDS011;12356;49.386;8.688;2023-10-13T06:53:56;9.43;;;4.00;;
24216;SDS011;12356;49.386;8.688;2023-10-13T06:56:27;11.43;;;4.28;;
24216;SDS011;12356;49.386;8.688;2023-10-13T06:58:58;9.05;;;4.32;;
24216;SDS011;12356;49.386;8.688;2023-10-13T07:01:34;10.00;;;4.15;;
24216;SDS011;12356;49.386;8.688;2023-10-13T07:04:12;13.20;;;4.30;;
24216;SDS011;12356;49.386;8.688;2023-10-13T07:06:43;11.18;;;3.97;;
24216;SDS011;12356;49.386;8.688;2023-10-13T07:09:20;11.10;;;4.50;;
24216;SDS011;12356;49.386;8.688;2023-10-13T07:12:06;11.60;;;4.22;;
24216;SDS011;12356;49.386;8.688;2023-10-13T07:14:46;10.20;;;4.57;;
24216;SDS011;12356;49.386;8.688;2023-10-13T07:17:25;12.52;;;4.65;;
24216;SDS011;12356;49.386;8.688;2023-10-13T07:19:55;14.32;;;4.47;;
24216;SDS011;12356;49.386;8.688;2023-10-13T07:22:36;14.20;;;4.05;;
24216;SDS011;12356;49.386;8.688;2023-10-13T07:25:10;12.25;;;4.40;;
24216;SDS011;12356;49.386;8.688;2023-10-13T07:27:46;11.02;;;4.53;;
24216;SDS011;12356;49.386;8.688;2023-10-13T07:30:17;8.70;;;3.80;;
24216;SDS011;12356;49.386;8.688;2023-10-13T07:32:56;18.02;;;4.47;;
24216;SDS011;12356;49.386;8.688;2023-10-13T07:35:30;9.52;;;4.20;;
24216;SDS011;12356;49.386;8.688;2023-10-13T07:38:05;9.73;;;4.10;;
24216;SDS011;12356;49.386;8.688;2023-10-13T07:40:38;11.45;;;4.28;;
24216;SDS011;12356;49.386;8.688;2023-10-13T07:43:12;9.02;;;4.05;;
24216;SDS011;12356;49.386;8.688;2023-10-13T07:45:43;9.98;;;4.40;;
24216;SDS011;12356;49.386;8.688;2023-10-13T07:48:13;11.80;;;4.20;;
24216;SDS011;12356;49.386;8.688;2023-10-13T07:51:00;9.57;;;3.97;;
24216;SDS011;12356;49.386;8.688;2023-10-13T07:53:52;8.82;;;4.30;;
24216;SDS011;12356;49.386;8.688;2023-10-13T07:56:23;6.57;;;4.03;;
24216;SDS011;12356;49.386;8.688;2023-10-13T07:58:53;9.18;;;4.35;;
24216;SDS011;12356;49.386;8.688;2023-10-13T08:01:30;14.20;;;4.60;;
24216;SDS011;12356;49.386;8.688;2023-10-13T08:04:00;11.25;;;4.43;;
24216;SDS011;12356;49.386;8.688;2023-10-13T08:06:44;10.48;;;4.00;;
24216;SDS011;12356;49.386;8.688;2023-10-13T08:09:15;16.05;;;4.45;;
24216;SDS011;12356;49.386;8.688;2023-10-13T08:12:02;11.90;;;4.55;;
24216;SDS011;12356;49.386;8.688;2023-10-13T08:14:35;8.10;;;3.78;;
24216;SDS011;12356;49.386;8.688;2023-10-13T08:17:08;10.70;;;5.07;;
24216;SDS011;12356;49.386;8.688;2023-10-13T08:19:40;17.13;;;4.47;;
24216;SDS011;12356;49.386;8.688;2023-10-13T08:22:17;16.67;;;4.63;;
24216;SDS011;12356;49.386;8.688;2023-10-13T08:24:48;8.52;;;4.55;;
24216;SDS011;12356;49.386;8.688;2023-10-13T08:27:20;10.52;;;4.50;;
24216;SDS011;12356;49.386;8.688;2023-10-13T08:30:29;9.20;;;4.15;;
24216;SDS011;12356;49.386;8.688;2023-10-13T08:33:00;8.43;;;4.22;;
24216;SDS011;12356;49.386;8.688;2023-10-13T08:35:46;7.18;;;4.10;;
24216;SDS011;12356;49.386;8.688;2023-10-13T08:38:46;9.90;;;4.18;;
24216;SDS011;12356;49.386;8.688;2023-10-13T08:41:25;10.50;;;4.30;;
24216;SDS011;12356;49.386;8.688;2023-10-13T08:44:01;14.70;;;4.68;;
24216;SDS011;12356;49.386;8.688;2023-10-13T08:46:35;8.23;;;3.95;;
24216;SDS011;12356;49.386;8.688;2023-10-13T08:49:31;11.68;;;4.65;;
24216;SDS011;12356;49.386;8.688;2023-10-13T08:52:10;12.38;;;4.40;;
24216;SDS011;12356;49.386;8.688;2023-10-13T08:55:04;9.30;;;4.13;;
24216;SDS011;12356;49.386;8.688;2023-10-13T08:57:54;9.95;;;4.32;;
24216;SDS011;12356;49.386;8.688;2023-10-13T09:00:33;11.30;;;4.55;;
24216;SDS011;12356;49.386;8.688;2023-10-13T09:03:22;9.48;;;4.20;;
24216;SDS011;12356;49.386;8.688;2023-10-13T09:05:58;10.80;;;4.10;;
24216;SDS011;12356;49.386;8.688;2023-10-13T09:08:32;13.90;;;4.63;;
24216;SDS011;12356;49.386;8.688;2023-10-13T09:11:14;7.25;;;4.10;;
24216;SDS011;12356;49.386;8.688;2023-10-13T09:13:50;11.23;;;3.97;;
24216;SDS011;12356;49.386;8.688;2023-10-13T09:16:23;13.05;;;4.13;;
24216;SDS011;12356;49.386;8.688;2023-10-13T09:19:09;10.07;;;4.30;;
24216;SDS011;12356;49.386;8.688;2023-10-13T09:21:41;7.82;;;4.03;;
24216;SDS011;12356;49.386;8.688;2023-10-13T09:24:12;11.60;;;4.30;;
24216;SDS011;12356;49.386;8.688;2023-10-13T09:26:51;8.00;;;4.10;;
24216;SDS011;12356;49.386;8.688;2023-10-13T09:29:25;12.02;;;3.78;;
24216;SDS011;12356;49.386;8.688;2023-10-13T09:32:02;9.00;;;3.90;;
24216;SDS011;12356;49.386;8.688;2023-10-13T09:34:33;10.98;;;4.00;;
24216;SDS011;12356;49.386;8.688;2023-10-13T09:37:10;14.68;;;4.28;;
24216;SDS011;12356;49.386;8.688;2023-10-13T09:39:41;11.60;;;4.45;;
24216;SDS011;12356;49.386;8.688;2023-10-13T09:42:22;9.48;;;3.92;;
24216;SDS011;12356;49.386;8.688;2023-10-13T09:44:56;13.43;;;4.13;;
24216;SDS011;12356;49.386;8.688;2023-10-13T09:47:29;8.95;;;3.80;;
24216;SDS011;12356;49.386;8.688;2023-10-13T09:50:02;10.68;;;4.10;;
24216;SDS011;12356;49.386;8.688;2023-10-13T09:52:35;10.05;;;3.90;;
24216;SDS011;12356;49.386;8.688;2023-10-13T09:57:51;8.38;;;3.80;;
24216;SDS011;12356;49.386;8.688;2023-10-13T10:00:29;9.02;;;3.50;;
24216;SDS011;12356;49.386;8.688;2023-10-13T10:03:16;11.02;;;3.83;;
24216;SDS011;12356;49.386;8.688;2023-10-13T10:06:02;10.85;;;3.35;;
24216;SDS011;12356;49.386;8.688;2023-10-13T10:08:34;10.05;;;3.88;;
24216;SDS011;12356;49.386;8.688;2023-10-13T10:16:39;8.75;;;3.40;;
24216;SDS011;12356;49.386;8.688;2023-10-13T10:19:30;10.88;;;3.85;;
24216;SDS011;12356;49.386;8.688;2023-10-13T10:22:06;8.75;;;3.75;;
24216;SDS011;12356;49.386;8.688;2023-10-13T10:25:02;9.88;;;3.53;;
24216;SDS011;12356;49.386;8.688;2023-10-13T10:27:36;8.52;;;3.45;;
24216;SDS011;12356;49.386;8.688;2023-10-13T10:30:07;10.65;;;3.60;;
24216;SDS011;12356;49.386;8.688;2023-10-13T10:32:43;10.32;;;3.42;;
24216;SDS011;12356;49.386;8.688;2023-10-13T10:35:22;9.13;;;3.65;;
24216;SDS011;12356;49.386;8.688;2023-10-13T10:37:53;7.75;;;3.42;;
24216;SDS011;12356;49.386;8.688;2023-10-13T10:43:04;8.60;;;3.75;;
24216;SDS011;12356;49.386;8.688;2023-10-13T10:45:38;11.20;;;3.45;;
24216;SDS011;12356;49.386;8.688;2023-10-13T10:48:15;9.38;;;3.60;;
24216;SDS011;12356;49.386;8.688;2023-10-13T10:50:52;8.38;;;3.60;;
24216;SDS011;12356;49.386;8.688;2023-10-13T10:53:26;8.57;;;3.63;;
24216;SDS011;12356;49.386;8.688;2023-10-13T10:56:06;11.65;;;3.67;;
24216;SDS011;12356;49.386;8.688;2023-10-13T10:59:15;11.25;;;3.35;;
24216;SDS011;12356;49.386;8.688;2023-10-13T11:01:49;11.23;;;3.90;;
24216;SDS011;12356;49.386;8.688;2023-10-13T11:04:23;12.18;;;3.72;;
24216;SDS011;12356;49.386;8.688;2023-10-13T11:07:03;7.15;;;3.58;;
24216;SDS011;12356;49.386;8.688;2023-10-13T11:09:36;16.23;;;3.63;;
24216;SDS011;12356;49.386;8.688;2023-10-13T11:14:44;11.60;;;3.40;;
24216;SDS011;12356;49.386;8.688;2023-10-13T11:17:21;8.65;;;3.80;;
24216;SDS011;12356;49.386;8.688;2023-10-13T11:19:56;10.25;;;3.45;;
24216;SDS011;12356;49.386;8.688;2023-10-13T11:22:27;9.23;;;4.07;;
24216;SDS011;12356;49.386;8.688;2023-10-13T11:25:06;9.02;;;3.85;;
24216;SDS011;12356;49.386;8.688;2023-10-13T11:27:40;10.85;;;3.80;;
24216;SDS011;12356;49.386;8.688;2023-10-13T11:30:19;7.28;;;3.92;;
24216;SDS011;12356;49.386;8.688;2023-10-13T11:33:02;11.73;;;4.13;;
24216;SDS011;12356;49.386;8.688;2023-10-13T11:35:39;10.27;;;3.83;;
24216;SDS011;12356;49.386;8.688;2023-10-13T11:38:26;7.07;;;3.92;;
24216;SDS011;12356;49.386;8.688;2023-10-13T11:41:19;7.60;;;3.80;;
24216;SDS011;12356;49.386;8.688;2023-10-13T11:43:50;7.95;;;3.88;;
24216;SDS011;12356;49.386;8.688;2023-10-13T11:46:22;11.02;;;4.10;;
24216;SDS011;12356;49.386;8.688;2023-10-13T11:49:06;7.15;;;3.70;;
24216;SDS011;12356;49.386;8.688;2023-10-13T11:51:48;12.93;;;4.65;;
24216;SDS011;12356;49.386;8.688;2023-10-13T11:54:20;10.73;;;4.07;;
24216;SDS011;12356;49.386;8.688;2023-10-13T11:56:52;11.95;;;4.65;;
24216;SDS011;12356;49.386;8.688;2023-10-13T11:59:23;10.25;;;5.72;;
24216;SDS011;12356;49.386;8.688;2023-10-13T12:01:57;17.90;;;4.80;;
24216;SDS011;12356;49.386;8.688;2023-10-13T12:04:46;8.98;;;4.07;;
24216;SDS011;12356;49.386;8.688;2023-10-13T12:07:24;8.80;;;4.43;;
24216;SDS011;12356;49.386;8.688;2023-10-13T12:10:15;6.82;;;4.43;;
24216;SDS011;12356;49.386;8.688;2023-10-13T12:12:46;10.30;;;4.15;;
24216;SDS011;12356;49.386;8.688;2023-10-13T12:15:23;7.63;;;4.25;;
24216;SDS011;12356;49.386;8.688;2023-10-13T12:18:06;11.63;;;4.38;;
24216;SDS011;12356;49.386;8.688;2023-10-13T12:20:37;11.55;;;3.88;;
24216;SDS011;12356;49.386;8.688;2023-10-13T12:23:15;8.82;;;4.10;;
24216;SDS011;12356;49.386;8.688;2023-10-13T12:25:47;8.07;;;3.92;;
24216;SDS011;12356;49.386;8.688;2023-10-13T12:28:29;13.75;;;4.40;;
24216;SDS011;12356;49.386;8.688;2023-10-13T12:31:03;10.32;;;4.00;;
24216;SDS011;12356;49.386;8.688;2023-10-13T12:33:38;11.73;;;4.47;;
24216;SDS011;12356;49.386;8.688;2023-10-13T12:38:44;12.98;;;4.32;;
24216;SDS011;12356;49.386;8.688;2023-10-13T12:41:18;11.15;;;4.15;;
24216;SDS011;12356;49.386;8.688;2023-10-13T12:44:07;15.02;;;4.47;;
24216;SDS011;12356;49.386;8.688;2023-10-13T12:46:57;13.05;;;5.35;;
24216;SDS011;12356;49.386;8.688;2023-10-13T12:49:46;9.25;;;4.15;;
24216;SDS011;12356;49.386;8.688;2023-10-13T12:52:17;11.70;;;4.47;;
24216;SDS011;12356;49.386;8.688;2023-10-13T12:54:50;11.15;;;4.47;;
24216;SDS011;12356;49.386;8.688;2023-10-13T12:57:27;11.27;;;4.47;;
24216;SDS011;12356;49.386;8.688;2023-10-13T12:59:58;9.32;;;4.65;;
24216;SDS011;12356;49.386;8.688;2023-10-13T13:02:29;9.60;;;4.47;;
24216;SDS011;12356;49.386;8.688;2023-10-13T13:05:00;9.10;;;4.32;;
24216;SDS011;12356;49.386;8.688;2023-10-13T13:07:41;9.50;;;4.53;;
24216;SDS011;12356;49.386;8.688;2023-10-13T13:10:22;9.75;;;4.20;;
24216;SDS011;12356;49.386;8.688;2023-10-13T13:13:05;10.60;;;4.30;;
24216;SDS011;12356;49.386;8.688;2023-10-13T13:15:35;13.02;;;4.60;;
24216;SDS011;12356;49.386;8.688;2023-10-13T13:18:06;12.80;;;5.00;;
24216;SDS011;12356;49.386;8.688;2023-10-13T13:20:42;8.98;;;4.68;;
24216;SDS011;12356;49.386;8.688;2023-10-13T13:23:25;8.48;;;4.32;;
24216;SDS011;12356;49.386;8.688;2023-10-13T13:25:56;14.20;;;4.72;;
24216;SDS011;12356;49.386;8.688;2023-10-13T13:28:27;10.77;;;4.47;;
24216;SDS011;12356;49.386;8.688;2023-10-13T13:31:07;13.10;;;4.45;;
24216;SDS011;12356;49.386;8.688;2023-10-13T13:33:38;10.93;;;3.95;;
24216;SDS011;12356;49.386;8.688;2023-10-13T13:36:12;11.45;;;4.22;;
24216;SDS011;12356;49.386;8.688;2023-10-13T13:38:45;8.70;;;3.83;;
24216;SDS011;12356;49.386;8.688;2023-10-13T13:41:17;11.88;;;4.03;;
24216;SDS011;12356;49.386;8.688;2023-10-13T13:43:49;10.17;;;4.20;;
24216;SDS011;12356;49.386;8.688;2023-10-13T13:46:20;8.82;;;4.05;;
24216;SDS011;12356;49.386;8.688;2023-10-13T13:48:55;14.68;;;4.22;;
24216;SDS011;12356;49.386;8.688;2023-10-13T13:51:29;9.40;;;4.07;;
24216;SDS011;12356;49.386;8.688;2023-10-13T13:54:02;11.70;;;4.22;;
24216;SDS011;12356;49.386;8.688;2023-10-13T13:56:36;8.32;;;4.07;;
24216;SDS011;12356;49.386;8.688;2023-10-13T13:59:09;11.02;;;3.95;;
24216;SDS011;12356;49.386;8.688;2023-10-13T14:01:45;8.27;;;4.10;;
24216;SDS011;12356;49.386;8.688;2023-10-13T14:04:16;9.52;;;3.92;;
24216;SDS011;12356;49.386;8.688;2023-10-13T14:06:47;10.15;;;3.60;;
24216;SDS011;12356;49.386;8.688;2023-10-13T14:09:18;10.30;;;4.47;;
24216;SDS011;12356;49.386;8.688;2023-10-13T14:12:06;8.80;;;3.92;;
24216;SDS011;12356;49.386;8.688;2023-10-13T14:14:55;7.55;;;3.63;;
24216;SDS011;12356;49.386;8.688;2023-10-13T14:17:26;9.57;;;4.10;;
24216;SDS011;12356;49.386;8.688;2023-10-13T14:20:00;12.10;;;4.15;;
24216;SDS011;12356;49.386;8.688;2023-10-13T14:22:39;8.82;;;3.92;;
24216;SDS011;12356;49.386;8.688;2023-10-13T14:25:11;8.95;;;3.88;;
24216;SDS011;12356;49.386;8.688;2023-10-13T14:27:44;7.43;;;4.25;;
24216;SDS011;12356;49.386;8.688;2023-10-13T14:30:15;12.18;;;3.90;;
24216;SDS011;12356;49.386;8.688;2023-10-13T14:32:49;14.35;;;4.03;;
24216;SDS011;12356;49.386;8.688;2023-10-13T14:35:19;9.80;;;3.92;;
24216;SDS011;12356;49.386;8.688;2023-10-13T14:37:50;9.18;;;4.00;;
24216;SDS011;12356;49.386;8.688;2023-10-13T14:40:20;7.75;;;4.10;;
24216;SDS011;12356;49.386;8.688;2023-10-13T14:42:51;10.85;;;4.13;;
24216;SDS011;12356;49.386;8.688;2023-10-13T14:45:22;10.60;;;3.90;;
24216;SDS011;12356;49.386;8.688;2023-10-13T14:47:53;7.68;;;3.80;;
24216;SDS011;12356;49.386;8.688;2023-10-13T14:50:23;13.23;;;3.65;;
24216;SDS011;12356;49.386;8.688;2023-10-13T14:52:54;9.75;;;3.78;;
24216;SDS011;12356;49.386;8.688;2023-10-13T14:55:25;10.38;;;3.90;;
24216;SDS011;12356;49.386;8.688;2023-10-13T14:58:08;12.15;;;3.88;;
24216;SDS011;12356;49.386;8.688;2023-10-13T15:00:38;10.10;;;3.97;;
24216;SDS011;12356;49.386;8.688;2023-10-13T15:03:51;11.25;;;3.63;;
24216;SDS011;12356;49.386;8.688;2023-10-13T15:06:25;12.40;;;4.28;;
24216;SDS011;12356;49.386;8.688;2023-10-13T15:08:59;8.32;;;3.63;;
24216;SDS011;12356;49.386;8.688;2023-10-13T15:11:30;10.55;;;3.50;;
24216;SDS011;12356;49.386;8.688;2023-10-13T15:14:07;8.25;;;3.50;;
24216;SDS011;12356;49.386;8.688;2023-10-13T15:16:37;9.07;;;3.70;;
24216;SDS011;12356;49.386;8.688;2023-10-13T15:19:08;12.90;;;4.07;;
24216;SDS011;12356;49.386;8.688;2023-10-13T15:21:39;10.20;;;3.75;;
24216;SDS011;12356;49.386;8.688;2023-10-13T15:24:10;13.60;;;4.00;;
24216;SDS011;12356;49.386;8.688;2023-10-13T15:26:44;9.93;;;3.83;;
24216;SDS011;12356;49.386;8.688;2023-10-13T15:29:18;10.93;;;3.83;;
24216;SDS011;12356;49.386;8.688;2023-10-13T15:31:55;13.25;;;3.92;;
24216;SDS011;12356;49.386;8.688;2023-10-13T15:34:28;8.88;;;3.90;;
24216;SDS011;12356;49.386;8.688;2023-10-13T15:36:59;13.75;;;3.58;;
24216;SDS011;12356;49.386;8.688;2023-10-13T15:39:30;9.52;;;3.40;;
24216;SDS011;12356;49.386;8.688;2023-10-13T15:42:01;10.45;;;3.30;;
24216;SDS011;12356;49.386;8.688;2023-10-13T15:44:33;10.15;;;3.80;;
24216;SDS011;12356;49.386;8.688;2023-10-13T15:47:04;14.75;;;3.80;;
24216;SDS011;12356;49.386;8.688;2023-10-13T15:49:35;14.70;;;5.40;;
24216;SDS011;12356;49.386;8.688;2023-10-13T15:52:06;22.90;;;13.57;;
24216;SDS011;12356;49.386;8.688;2023-10-13T15:54:36;7.63;;;4.05;;
24216;SDS011;12356;49.386;8.688;2023-10-13T15:57:07;13.98;;;4.80;;
24216;SDS011;12356;49.386;8.688;2023-10-13T15:59:41;7.55;;;4.32;;
24216;SDS011;12356;49.386;8.688;2023-10-13T16:02:15;8.88;;;4.30;;
24216;SDS011;12356;49.386;8.688;2023-10-13T16:04:49;11.30;;;4.03;;